sensor_id;sensor_type;location;lat;lon;timestamp;P1;durP1;ratioP1;P2;durP2;ratioP2
6452;SDS011;3259;51.080;13.712;2022-12-18T00:00:29;1.38;;;1.27;;
6452;SDS011;3259;51.080;13.712;2022-12-18T00:03:18;3.45;;;0.85;;
6452;SDS011;3259;51.080;13.712;2022-12-18T00:06:07;0.70;;;0.70;;
6452;SDS011;3259;51.080;13.712;2022-12-18T00:08:56;0.70;;;0.70;;
6452;SDS011;3259;51.080;13.712;2022-12-18T00:11:46;0.65;;;0.65;;
6452;SDS011;3259;51.080;13.712;2022-12-18T00:14:35;1.30;;;0.93;;
6452;SDS011;3259;51.080;13.712;2022-12-18T00:17:28;2.05;;;0.90;;
6452;SDS011;3259;51.080;13.712;2022-12-18T00:20:17;1.45;;;0.95;;
6452;SDS011;3259;51.080;13.712;2022-12-18T00:23:11;1.10;;;1.00;;
6452;SDS011;3259;51.080;13.712;2022-12-18T00:26:00;0.68;;;0.60;;
6452;SDS011;3259;51.080;13.712;2022-12-18T00:28:49;0.60;;;0.60;;
6452;SDS011;3259;51.080;13.712;2022-12-18T00:31:38;1.30;;;0.80;;
6452;SDS011;3259;51.080;13.712;2022-12-18T00:34:28;0.65;;;0.60;;
6452;SDS011;3259;51.080;13.712;2022-12-18T00:37:17;0.98;;;0.60;;
6452;SDS011;3259;51.080;13.712;2022-12-18T00:40:06;2.40;;;0.73;;
6452;SDS011;3259;51.080;13.712;2022-12-18T00:42:56;0.60;;;0.60;;
6452;SDS011;3259;51.080;13.712;2022-12-18T00:45:44;0.70;;;0.70;;
6452;SDS011;3259;51.080;13.712;2022-12-18T00:48:32;0.57;;;0.57;;
6452;SDS011;3259;51.080;13.712;2022-12-18T00:51:23;6.13;;;0.85;;
6452;SDS011;3259;51.080;13.712;2022-12-18T00:54:12;2.55;;;0.98;;
6452;SDS011;3259;51.080;13.712;2022-12-18T00:57:00;1.08;;;0.98;;
6452;SDS011;3259;51.080;13.712;2022-12-18T00:59:49;0.55;;;0.55;;
6452;SDS011;3259;51.080;13.712;2022-12-18T01:02:38;0.70;;;0.60;;
6452;SDS011;3259;51.080;13.712;2022-12-18T01:05:27;1.15;;;0.80;;
6452;SDS011;3259;51.080;13.712;2022-12-18T01:08:17;0.90;;;0.70;;
6452;SDS011;3259;51.080;13.712;2022-12-18T01:11:06;0.60;;;0.60;;
6452;SDS011;3259;51.080;13.712;2022-12-18T01:13:56;0.88;;;0.80;;
6452;SDS011;3259;51.080;13.712;2022-12-18T01:16:45;0.40;;;0.40;;
6452;SDS011;3259;51.080;13.712;2022-12-18T01:19:34;0.57;;;0.57;;
6452;SDS011;3259;51.080;13.712;2022-12-18T01:22:23;0.50;;;0.50;;
6452;SDS011;3259;51.080;13.712;2022-12-18T01:25:13;0.57;;;0.50;;
6452;SDS011;3259;51.080;13.712;2022-12-18T01:28:02;0.30;;;0.30;;
6452;SDS011;3259;51.080;13.712;2022-12-18T01:30:51;0.73;;;0.73;;
6452;SDS011;3259;51.080;13.712;2022-12-18T01:33:40;0.43;;;0.43;;
6452;SDS011;3259;51.080;13.712;2022-12-18T01:36:29;0.40;;;0.40;;
6452;SDS011;3259;51.080;13.712;2022-12-18T01:39:19;0.85;;;0.55;;
6452;SDS011;3259;51.080;13.712;2022-12-18T01:42:10;3.78;;;0.77;;
6452;SDS011;3259;51.080;13.712;2022-12-18T01:45:05;0.70;;;0.70;;
6452;SDS011;3259;51.080;13.712;2022-12-18T01:47:57;0.45;;;0.45;;
6452;SDS011;3259;51.080;13.712;2022-12-18T01:50:48;0.65;;;0.65;;
6452;SDS011;3259;51.080;13.712;2022-12-18T01:53:37;0.65;;;0.40;;
6452;SDS011;3259;51.080;13.712;2022-12-18T01:56:28;0.70;;;0.70;;
6452;SDS011;3259;51.080;13.712;2022-12-18T01:59:18;0.55;;;0.55;;
6452;SDS011;3259;51.080;13.712;2022-12-18T02:02:07;2.67;;;0.80;;
6452;SDS011;3259;51.080;13.712;2022-12-18T02:04:56;0.52;;;0.52;;
6452;SDS011;3259;51.080;13.712;2022-12-18T02:07:46;0.73;;;0.73;;
6452;SDS011;3259;51.080;13.712;2022-12-18T02:10:42;0.30;;;0.30;;
6452;SDS011;3259;51.080;13.712;2022-12-18T02:13:36;0.50;;;0.50;;
6452;SDS011;3259;51.080;13.712;2022-12-18T02:16:33;1.05;;;0.90;;
6452;SDS011;3259;51.080;13.712;2022-12-18T02:19:38;0.50;;;0.50;;
6452;SDS011;3259;51.080;13.712;2022-12-18T02:22:34;0.50;;;0.45;;
6452;SDS011;3259;51.080;13.712;2022-12-18T02:25:30;0.40;;;0.40;;
6452;SDS011;3259;51.080;13.712;2022-12-18T02:28:33;0.60;;;0.60;;
6452;SDS011;3259;51.080;13.712;2022-12-18T02:31:23;0.45;;;0.45;;
6452;SDS011;3259;51.080;13.712;2022-12-18T02:34:14;0.45;;;0.45;;
6452;SDS011;3259;51.080;13.712;2022-12-18T02:37:06;0.57;;;0.50;;
6452;SDS011;3259;51.080;13.712;2022-12-18T02:39:57;0.50;;;0.50;;
6452;SDS011;3259;51.080;13.712;2022-12-18T02:42:47;0.50;;;0.50;;
6452;SDS011;3259;51.080;13.712;2022-12-18T02:45:45;0.50;;;0.50;;
6452;SDS011;3259;51.080;13.712;2022-12-18T02:48:34;0.60;;;0.60;;
6452;SDS011;3259;51.080;13.712;2022-12-18T02:51:25;0.73;;;0.63;;
6452;SDS011;3259;51.080;13.712;2022-12-18T02:54:20;0.60;;;0.60;;
6452;SDS011;3259;51.080;13.712;2022-12-18T02:57:19;0.55;;;0.55;;
6452;SDS011;3259;51.080;13.712;2022-12-18T03:00:12;0.60;;;0.60;;
6452;SDS011;3259;51.080;13.712;2022-12-18T03:03:05;0.57;;;0.57;;
6452;SDS011;3259;51.080;13.712;2022-12-18T03:05:56;0.63;;;0.63;;
6452;SDS011;3259;51.080;13.712;2022-12-18T03:08:47;0.50;;;0.47;;
6452;SDS011;3259;51.080;13.712;2022-12-18T03:11:39;0.70;;;0.55;;
6452;SDS011;3259;51.080;13.712;2022-12-18T03:14:47;0.45;;;0.45;;
6452;SDS011;3259;51.080;13.712;2022-12-18T03:17:38;0.40;;;0.40;;
6452;SDS011;3259;51.080;13.712;2022-12-18T03:20:32;0.40;;;0.40;;
6452;SDS011;3259;51.080;13.712;2022-12-18T03:23:24;0.80;;;0.52;;
6452;SDS011;3259;51.080;13.712;2022-12-18T03:26:16;0.43;;;0.40;;
6452;SDS011;3259;51.080;13.712;2022-12-18T03:29:07;0.50;;;0.50;;
6452;SDS011;3259;51.080;13.712;2022-12-18T03:31:58;0.50;;;0.50;;
6452;SDS011;3259;51.080;13.712;2022-12-18T03:34:50;2.70;;;0.50;;
6452;SDS011;3259;51.080;13.712;2022-12-18T03:37:42;0.40;;;0.40;;
6452;SDS011;3259;51.080;13.712;2022-12-18T03:40:31;0.50;;;0.50;;
6452;SDS011;3259;51.080;13.712;2022-12-18T03:43:26;0.28;;;0.25;;
6452;SDS011;3259;51.080;13.712;2022-12-18T03:46:25;0.43;;;0.32;;
6452;SDS011;3259;51.080;13.712;2022-12-18T03:49:18;0.47;;;0.47;;
6452;SDS011;3259;51.080;13.712;2022-12-18T03:52:12;2.97;;;0.20;;
6452;SDS011;3259;51.080;13.712;2022-12-18T03:55:06;0.60;;;0.60;;
6452;SDS011;3259;51.080;13.712;2022-12-18T03:57:55;0.93;;;0.35;;
6452;SDS011;3259;51.080;13.712;2022-12-18T04:00:44;0.70;;;0.70;;
6452;SDS011;3259;51.080;13.712;2022-12-18T04:03:34;0.50;;;0.50;;
6452;SDS011;3259;51.080;13.712;2022-12-18T04:06:24;0.60;;;0.60;;
6452;SDS011;3259;51.080;13.712;2022-12-18T04:09:13;0.30;;;0.30;;
6452;SDS011;3259;51.080;13.712;2022-12-18T04:12:04;0.50;;;0.50;;
6452;SDS011;3259;51.080;13.712;2022-12-18T04:14:53;0.60;;;0.60;;
6452;SDS011;3259;51.080;13.712;2022-12-18T04:17:43;0.63;;;0.43;;
6452;SDS011;3259;51.080;13.712;2022-12-18T04:20:35;0.38;;;0.30;;
6452;SDS011;3259;51.080;13.712;2022-12-18T04:23:24;0.30;;;0.30;;
6452;SDS011;3259;51.080;13.712;2022-12-18T04:26:13;0.30;;;0.30;;
6452;SDS011;3259;51.080;13.712;2022-12-18T04:29:03;0.45;;;0.38;;
6452;SDS011;3259;51.080;13.712;2022-12-18T04:31:52;0.30;;;0.30;;
6452;SDS011;3259;51.080;13.712;2022-12-18T04:34:40;0.43;;;0.43;;
6452;SDS011;3259;51.080;13.712;2022-12-18T04:37:29;0.50;;;0.50;;
6452;SDS011;3259;51.080;13.712;2022-12-18T04:40:18;0.50;;;0.47;;
6452;SDS011;3259;51.080;13.712;2022-12-18T04:43:07;0.30;;;0.30;;
6452;SDS011;3259;51.080;13.712;2022-12-18T04:46:02;0.45;;;0.45;;
6452;SDS011;3259;51.080;13.712;2022-12-18T04:48:51;0.30;;;0.30;;
6452;SDS011;3259;51.080;13.712;2022-12-18T04:51:40;0.40;;;0.40;;
6452;SDS011;3259;51.080;13.712;2022-12-18T04:54:29;0.40;;;0.40;;
6452;SDS011;3259;51.080;13.712;2022-12-18T04:57:17;0.38;;;0.38;;
6452;SDS011;3259;51.080;13.712;2022-12-18T05:00:06;0.22;;;0.22;;
6452;SDS011;3259;51.080;13.712;2022-12-18T05:02:57;0.40;;;0.40;;
6452;SDS011;3259;51.080;13.712;2022-12-18T05:05:48;0.47;;;0.47;;
6452;SDS011;3259;51.080;13.712;2022-12-18T05:08:37;0.40;;;0.40;;
6452;SDS011;3259;51.080;13.712;2022-12-18T05:11:26;0.40;;;0.40;;
6452;SDS011;3259;51.080;13.712;2022-12-18T05:14:15;0.30;;;0.30;;
6452;SDS011;3259;51.080;13.712;2022-12-18T05:17:03;0.20;;;0.20;;
6452;SDS011;3259;51.080;13.712;2022-12-18T05:19:53;0.20;;;0.20;;
6452;SDS011;3259;51.080;13.712;2022-12-18T05:22:42;0.68;;;0.68;;
6452;SDS011;3259;51.080;13.712;2022-12-18T05:25:31;0.73;;;0.35;;
6452;SDS011;3259;51.080;13.712;2022-12-18T05:28:19;0.20;;;0.20;;
6452;SDS011;3259;51.080;13.712;2022-12-18T05:31:08;0.30;;;0.30;;
6452;SDS011;3259;51.080;13.712;2022-12-18T05:33:57;0.40;;;0.40;;
6452;SDS011;3259;51.080;13.712;2022-12-18T05:36:47;0.40;;;0.40;;
6452;SDS011;3259;51.080;13.712;2022-12-18T05:39:36;0.40;;;0.40;;
6452;SDS011;3259;51.080;13.712;2022-12-18T05:42:25;0.20;;;0.20;;
6452;SDS011;3259;51.080;13.712;2022-12-18T05:45:13;0.28;;;0.28;;
6452;SDS011;3259;51.080;13.712;2022-12-18T05:48:02;0.60;;;0.60;;
6452;SDS011;3259;51.080;13.712;2022-12-18T05:50:51;0.95;;;0.35;;
6452;SDS011;3259;51.080;13.712;2022-12-18T05:53:42;1.40;;;0.43;;
6452;SDS011;3259;51.080;13.712;2022-12-18T05:56:31;0.70;;;0.40;;
6452;SDS011;3259;51.080;13.712;2022-12-18T05:59:19;0.10;;;0.10;;
6452;SDS011;3259;51.080;13.712;2022-12-18T06:02:08;1.88;;;0.50;;
6452;SDS011;3259;51.080;13.712;2022-12-18T06:04:57;0.65;;;0.35;;
6452;SDS011;3259;51.080;13.712;2022-12-18T06:07:46;0.20;;;0.20;;
6452;SDS011;3259;51.080;13.712;2022-12-18T06:10:36;0.63;;;0.40;;
6452;SDS011;3259;51.080;13.712;2022-12-18T06:13:24;0.30;;;0.30;;
6452;SDS011;3259;51.080;13.712;2022-12-18T06:16:13;0.32;;;0.32;;
6452;SDS011;3259;51.080;13.712;2022-12-18T06:19:03;1.20;;;0.47;;
6452;SDS011;3259;51.080;13.712;2022-12-18T06:21:52;0.40;;;0.40;;
6452;SDS011;3259;51.080;13.712;2022-12-18T06:24:44;0.20;;;0.20;;
6452;SDS011;3259;51.080;13.712;2022-12-18T06:27:34;0.40;;;0.38;;
6452;SDS011;3259;51.080;13.712;2022-12-18T06:30:22;0.22;;;0.20;;
6452;SDS011;3259;51.080;13.712;2022-12-18T06:33:11;0.20;;;0.20;;
6452;SDS011;3259;51.080;13.712;2022-12-18T06:36:00;0.20;;;0.20;;
6452;SDS011;3259;51.080;13.712;2022-12-18T06:38:49;0.32;;;0.25;;
6452;SDS011;3259;51.080;13.712;2022-12-18T06:41:38;0.45;;;0.30;;
6452;SDS011;3259;51.080;13.712;2022-12-18T06:44:28;0.32;;;0.32;;
6452;SDS011;3259;51.080;13.712;2022-12-18T06:47:16;1.75;;;0.25;;
6452;SDS011;3259;51.080;13.712;2022-12-18T06:50:06;0.40;;;0.25;;
6452;SDS011;3259;51.080;13.712;2022-12-18T06:52:55;0.30;;;0.30;;
6452;SDS011;3259;51.080;13.712;2022-12-18T06:55:43;0.80;;;0.28;;
6452;SDS011;3259;51.080;13.712;2022-12-18T06:58:32;0.38;;;0.38;;
6452;SDS011;3259;51.080;13.712;2022-12-18T07:01:22;0.45;;;0.45;;
6452;SDS011;3259;51.080;13.712;2022-12-18T07:04:11;0.25;;;0.25;;
6452;SDS011;3259;51.080;13.712;2022-12-18T07:06:59;0.30;;;0.30;;
6452;SDS011;3259;51.080;13.712;2022-12-18T07:09:49;4.28;;;0.30;;
6452;SDS011;3259;51.080;13.712;2022-12-18T07:12:37;1.20;;;0.40;;
6452;SDS011;3259;51.080;13.712;2022-12-18T07:15:26;0.40;;;0.40;;
6452;SDS011;3259;51.080;13.712;2022-12-18T07:18:16;4.13;;;0.63;;
6452;SDS011;3259;51.080;13.712;2022-12-18T07:21:05;0.20;;;0.20;;
6452;SDS011;3259;51.080;13.712;2022-12-18T07:23:54;0.30;;;0.30;;
6452;SDS011;3259;51.080;13.712;2022-12-18T07:26:45;0.28;;;0.28;;
6452;SDS011;3259;51.080;13.712;2022-12-18T07:29:33;2.05;;;0.22;;
6452;SDS011;3259;51.080;13.712;2022-12-18T07:32:23;0.80;;;0.30;;
6452;SDS011;3259;51.080;13.712;2022-12-18T07:35:13;0.30;;;0.30;;
6452;SDS011;3259;51.080;13.712;2022-12-18T07:38:09;0.20;;;0.20;;
6452;SDS011;3259;51.080;13.712;2022-12-18T07:40:59;0.40;;;0.20;;
6452;SDS011;3259;51.080;13.712;2022-12-18T07:43:48;0.47;;;0.22;;
6452;SDS011;3259;51.080;13.712;2022-12-18T07:46:37;0.20;;;0.20;;
6452;SDS011;3259;51.080;13.712;2022-12-18T07:49:27;0.17;;;0.17;;
6452;SDS011;3259;51.080;13.712;2022-12-18T07:52:17;0.20;;;0.20;;
6452;SDS011;3259;51.080;13.712;2022-12-18T07:55:11;1.60;;;0.30;;
6452;SDS011;3259;51.080;13.712;2022-12-18T07:58:00;0.20;;;0.20;;
6452;SDS011;3259;51.080;13.712;2022-12-18T08:00:49;0.38;;;0.30;;
6452;SDS011;3259;51.080;13.712;2022-12-18T08:03:39;0.25;;;0.25;;
6452;SDS011;3259;51.080;13.712;2022-12-18T08:06:29;0.73;;;0.32;;
6452;SDS011;3259;51.080;13.712;2022-12-18T08:09:18;1.08;;;0.20;;
6452;SDS011;3259;51.080;13.712;2022-12-18T08:12:07;0.22;;;0.22;;
6452;SDS011;3259;51.080;13.712;2022-12-18T08:14:56;0.20;;;0.20;;
6452;SDS011;3259;51.080;13.712;2022-12-18T08:17:44;0.43;;;0.20;;
6452;SDS011;3259;51.080;13.712;2022-12-18T08:20:33;0.20;;;0.20;;
6452;SDS011;3259;51.080;13.712;2022-12-18T08:23:22;0.17;;;0.17;;
6452;SDS011;3259;51.080;13.712;2022-12-18T08:26:15;0.30;;;0.30;;
6452;SDS011;3259;51.080;13.712;2022-12-18T08:29:04;0.22;;;0.22;;
6452;SDS011;3259;51.080;13.712;2022-12-18T08:31:53;0.30;;;0.10;;
6452;SDS011;3259;51.080;13.712;2022-12-18T08:34:42;0.30;;;0.10;;
6452;SDS011;3259;51.080;13.712;2022-12-18T08:37:30;0.10;;;0.10;;
6452;SDS011;3259;51.080;13.712;2022-12-18T08:40:20;0.30;;;0.30;;
6452;SDS011;3259;51.080;13.712;2022-12-18T08:43:10;0.10;;;0.10;;
6452;SDS011;3259;51.080;13.712;2022-12-18T08:46:16;0.10;;;0.10;;
6452;SDS011;3259;51.080;13.712;2022-12-18T08:49:05;0.57;;;0.22;;
6452;SDS011;3259;51.080;13.712;2022-12-18T08:51:54;0.20;;;0.20;;
6452;SDS011;3259;51.080;13.712;2022-12-18T08:54:43;0.30;;;0.30;;
6452;SDS011;3259;51.080;13.712;2022-12-18T08:57:32;1.15;;;0.20;;
6452;SDS011;3259;51.080;13.712;2022-12-18T09:00:22;0.30;;;0.20;;
6452;SDS011;3259;51.080;13.712;2022-12-18T09:03:11;0.10;;;0.10;;
6452;SDS011;3259;51.080;13.712;2022-12-18T09:06:00;0.10;;;0.10;;
6452;SDS011;3259;51.080;13.712;2022-12-18T09:08:49;2.67;;;0.20;;
6452;SDS011;3259;51.080;13.712;2022-12-18T09:11:37;0.20;;;0.20;;
6452;SDS011;3259;51.080;13.712;2022-12-18T09:14:26;0.32;;;0.32;;
6452;SDS011;3259;51.080;13.712;2022-12-18T09:17:16;0.17;;;0.17;;
6452;SDS011;3259;51.080;13.712;2022-12-18T09:20:05;0.20;;;0.20;;
6452;SDS011;3259;51.080;13.712;2022-12-18T09:22:55;1.30;;;0.40;;
6452;SDS011;3259;51.080;13.712;2022-12-18T09:25:44;2.60;;;0.28;;
6452;SDS011;3259;51.080;13.712;2022-12-18T09:28:32;0.10;;;0.10;;
6452;SDS011;3259;51.080;13.712;2022-12-18T09:31:22;3.10;;;0.28;;
6452;SDS011;3259;51.080;13.712;2022-12-18T09:34:12;0.25;;;0.20;;
6452;SDS011;3259;51.080;13.712;2022-12-18T09:37:01;0.85;;;0.85;;
6452;SDS011;3259;51.080;13.712;2022-12-18T09:39:50;2.38;;;0.30;;
6452;SDS011;3259;51.080;13.712;2022-12-18T09:42:38;0.22;;;0.22;;
6452;SDS011;3259;51.080;13.712;2022-12-18T09:45:27;0.30;;;0.22;;
6452;SDS011;3259;51.080;13.712;2022-12-18T09:51:11;0.28;;;0.20;;
6452;SDS011;3259;51.080;13.712;2022-12-18T09:54:03;0.57;;;0.20;;
6452;SDS011;3259;51.080;13.712;2022-12-18T09:56:53;0.20;;;0.20;;
6452;SDS011;3259;51.080;13.712;2022-12-18T09:59:42;0.85;;;0.40;;
6452;SDS011;3259;51.080;13.712;2022-12-18T10:02:33;0.15;;;0.15;;
6452;SDS011;3259;51.080;13.712;2022-12-18T10:05:24;0.38;;;0.38;;
6452;SDS011;3259;51.080;13.712;2022-12-18T10:08:27;0.45;;;0.40;;
6452;SDS011;3259;51.080;13.712;2022-12-18T10:11:32;1.75;;;0.20;;
6452;SDS011;3259;51.080;13.712;2022-12-18T10:14:33;1.45;;;0.40;;
6452;SDS011;3259;51.080;13.712;2022-12-18T10:17:26;2.58;;;0.20;;
6452;SDS011;3259;51.080;13.712;2022-12-18T10:20:20;0.82;;;0.22;;
6452;SDS011;3259;51.080;13.712;2022-12-18T10:23:14;0.70;;;0.30;;
6452;SDS011;3259;51.080;13.712;2022-12-18T10:26:10;0.30;;;0.20;;
6452;SDS011;3259;51.080;13.712;2022-12-18T10:29:00;0.20;;;0.20;;
6452;SDS011;3259;51.080;13.712;2022-12-18T10:31:51;0.63;;;0.50;;
6452;SDS011;3259;51.080;13.712;2022-12-18T10:34:40;0.20;;;0.20;;
6452;SDS011;3259;51.080;13.712;2022-12-18T10:37:29;0.43;;;0.10;;
6452;SDS011;3259;51.080;13.712;2022-12-18T10:40:18;0.90;;;0.10;;
6452;SDS011;3259;51.080;13.712;2022-12-18T10:43:12;1.55;;;0.30;;
6452;SDS011;3259;51.080;13.712;2022-12-18T10:46:04;0.25;;;0.15;;
6452;SDS011;3259;51.080;13.712;2022-12-18T10:49:03;0.28;;;0.28;;
6452;SDS011;3259;51.080;13.712;2022-12-18T10:52:03;0.90;;;0.10;;
6452;SDS011;3259;51.080;13.712;2022-12-18T10:54:54;0.20;;;0.15;;
6452;SDS011;3259;51.080;13.712;2022-12-18T10:57:44;1.15;;;0.30;;
6452;SDS011;3259;51.080;13.712;2022-12-18T11:00:35;2.22;;;0.40;;
6452;SDS011;3259;51.080;13.712;2022-12-18T11:03:31;0.57;;;0.10;;
6452;SDS011;3259;51.080;13.712;2022-12-18T11:06:23;0.28;;;0.20;;
6452;SDS011;3259;51.080;13.712;2022-12-18T11:09:18;0.90;;;0.90;;
6452;SDS011;3259;51.080;13.712;2022-12-18T11:12:14;1.63;;;1.52;;
6452;SDS011;3259;51.080;13.712;2022-12-18T11:15:04;1.17;;;0.98;;
6452;SDS011;3259;51.080;13.712;2022-12-18T11:17:55;14.73;;;1.80;;
6452;SDS011;3259;51.080;13.712;2022-12-18T11:20:49;19.63;;;1.52;;
6452;SDS011;3259;51.080;13.712;2022-12-18T11:23:45;20.92;;;2.42;;
6452;SDS011;3259;51.080;13.712;2022-12-18T11:26:35;8.45;;;1.75;;
6452;SDS011;3259;51.080;13.712;2022-12-18T11:29:31;14.10;;;2.03;;
6452;SDS011;3259;51.080;13.712;2022-12-18T11:32:24;13.10;;;1.25;;
6452;SDS011;3259;51.080;13.712;2022-12-18T11:35:19;10.55;;;1.25;;
6452;SDS011;3259;51.080;13.712;2022-12-18T11:38:21;10.75;;;1.25;;
6452;SDS011;3259;51.080;13.712;2022-12-18T11:41:14;8.73;;;1.30;;
6452;SDS011;3259;51.080;13.712;2022-12-18T11:44:06;25.40;;;1.77;;
6452;SDS011;3259;51.080;13.712;2022-12-18T11:47:00;15.63;;;3.47;;
6452;SDS011;3259;51.080;13.712;2022-12-18T11:49:52;21.17;;;4.05;;
6452;SDS011;3259;51.080;13.712;2022-12-18T11:52:42;11.70;;;3.33;;
6452;SDS011;3259;51.080;13.712;2022-12-18T11:55:35;7.32;;;2.25;;
6452;SDS011;3259;51.080;13.712;2022-12-18T11:58:31;6.85;;;2.17;;
6452;SDS011;3259;51.080;13.712;2022-12-18T12:01:33;6.65;;;2.35;;
6452;SDS011;3259;51.080;13.712;2022-12-18T12:04:39;8.27;;;1.92;;
6452;SDS011;3259;51.080;13.712;2022-12-18T12:07:36;6.68;;;1.75;;
6452;SDS011;3259;51.080;13.712;2022-12-18T12:10:36;6.90;;;1.85;;
6452;SDS011;3259;51.080;13.712;2022-12-18T12:13:36;4.90;;;1.90;;
6452;SDS011;3259;51.080;13.712;2022-12-18T12:16:31;5.10;;;1.65;;
6452;SDS011;3259;51.080;13.712;2022-12-18T12:19:27;4.72;;;1.58;;
6452;SDS011;3259;51.080;13.712;2022-12-18T12:22:24;10.38;;;1.98;;
6452;SDS011;3259;51.080;13.712;2022-12-18T12:25:21;7.43;;;2.13;;
6452;SDS011;3259;51.080;13.712;2022-12-18T12:28:25;9.18;;;1.90;;
6452;SDS011;3259;51.080;13.712;2022-12-18T12:31:25;6.05;;;1.52;;
6452;SDS011;3259;51.080;13.712;2022-12-18T12:34:21;6.40;;;1.95;;
6452;SDS011;3259;51.080;13.712;2022-12-18T12:37:17;2.88;;;1.58;;
6452;SDS011;3259;51.080;13.712;2022-12-18T12:40:11;3.25;;;1.45;;
6452;SDS011;3259;51.080;13.712;2022-12-18T12:43:25;2.15;;;1.80;;
6452;SDS011;3259;51.080;13.712;2022-12-18T12:46:17;4.32;;;1.50;;
6452;SDS011;3259;51.080;13.712;2022-12-18T12:49:09;15.93;;;2.15;;
6452;SDS011;3259;51.080;13.712;2022-12-18T12:52:03;6.28;;;1.52;;
6452;SDS011;3259;51.080;13.712;2022-12-18T12:54:53;2.40;;;1.40;;
6452;SDS011;3259;51.080;13.712;2022-12-18T12:57:45;4.40;;;1.20;;
6452;SDS011;3259;51.080;13.712;2022-12-18T13:00:38;4.63;;;1.50;;
6452;SDS011;3259;51.080;13.712;2022-12-18T13:03:32;4.93;;;1.20;;
6452;SDS011;3259;51.080;13.712;2022-12-18T13:06:29;3.13;;;1.35;;
6452;SDS011;3259;51.080;13.712;2022-12-18T13:09:36;4.07;;;1.80;;
6452;SDS011;3259;51.080;13.712;2022-12-18T13:13:05;6.45;;;1.38;;
6452;SDS011;3259;51.080;13.712;2022-12-18T13:16:03;3.97;;;1.30;;
6452;SDS011;3259;51.080;13.712;2022-12-18T13:18:53;5.70;;;1.65;;
6452;SDS011;3259;51.080;13.712;2022-12-18T13:21:44;2.58;;;1.30;;
6452;SDS011;3259;51.080;13.712;2022-12-18T13:24:41;1.48;;;1.25;;
6452;SDS011;3259;51.080;13.712;2022-12-18T13:27:51;1.48;;;1.23;;
6452;SDS011;3259;51.080;13.712;2022-12-18T13:30:53;1.42;;;1.20;;
6452;SDS011;3259;51.080;13.712;2022-12-18T13:33:44;5.28;;;2.13;;
6452;SDS011;3259;51.080;13.712;2022-12-18T13:36:54;2.55;;;1.55;;
6452;SDS011;3259;51.080;13.712;2022-12-18T13:39:46;3.60;;;1.77;;
6452;SDS011;3259;51.080;13.712;2022-12-18T13:42:38;2.53;;;1.42;;
6452;SDS011;3259;51.080;13.712;2022-12-18T13:45:47;1.48;;;1.38;;
6452;SDS011;3259;51.080;13.712;2022-12-18T13:48:37;3.95;;;1.27;;
6452;SDS011;3259;51.080;13.712;2022-12-18T13:51:27;1.77;;;1.23;;
6452;SDS011;3259;51.080;13.712;2022-12-18T13:54:18;6.75;;;1.23;;
6452;SDS011;3259;51.080;13.712;2022-12-18T13:57:23;1.67;;;1.08;;
6452;SDS011;3259;51.080;13.712;2022-12-18T14:00:23;3.40;;;1.40;;
6452;SDS011;3259;51.080;13.712;2022-12-18T14:03:17;1.08;;;0.98;;
6452;SDS011;3259;51.080;13.712;2022-12-18T14:06:08;1.08;;;1.02;;
6452;SDS011;3259;51.080;13.712;2022-12-18T14:08:57;3.40;;;1.55;;
6452;SDS011;3259;51.080;13.712;2022-12-18T14:11:46;9.05;;;1.92;;
6452;SDS011;3259;51.080;13.712;2022-12-18T14:14:37;10.07;;;7.00;;
6452;SDS011;3259;51.080;13.712;2022-12-18T14:17:25;12.32;;;8.55;;
6452;SDS011;3259;51.080;13.712;2022-12-18T14:20:18;11.68;;;8.85;;
6452;SDS011;3259;51.080;13.712;2022-12-18T14:23:23;17.42;;;10.95;;
6452;SDS011;3259;51.080;13.712;2022-12-18T14:26:21;20.55;;;13.48;;
6452;SDS011;3259;51.080;13.712;2022-12-18T14:29:19;23.38;;;13.25;;
6452;SDS011;3259;51.080;13.712;2022-12-18T14:32:12;18.83;;;12.45;;
6452;SDS011;3259;51.080;13.712;2022-12-18T14:35:12;23.75;;;13.93;;
6452;SDS011;3259;51.080;13.712;2022-12-18T14:38:15;15.55;;;11.70;;
6452;SDS011;3259;51.080;13.712;2022-12-18T14:41:10;13.65;;;10.10;;
6452;SDS011;3259;51.080;13.712;2022-12-18T14:44:05;17.27;;;10.93;;
6452;SDS011;3259;51.080;13.712;2022-12-18T14:46:54;15.18;;;10.45;;
6452;SDS011;3259;51.080;13.712;2022-12-18T14:49:43;15.48;;;11.48;;
6452;SDS011;3259;51.080;13.712;2022-12-18T14:52:32;14.43;;;9.68;;
6452;SDS011;3259;51.080;13.712;2022-12-18T14:55:22;14.93;;;10.23;;
6452;SDS011;3259;51.080;13.712;2022-12-18T14:58:10;15.43;;;10.43;;
6452;SDS011;3259;51.080;13.712;2022-12-18T15:04:28;12.55;;;9.65;;
6452;SDS011;3259;51.080;13.712;2022-12-18T15:07:20;14.65;;;9.90;;
6452;SDS011;3259;51.080;13.712;2022-12-18T15:10:11;14.45;;;9.55;;
6452;SDS011;3259;51.080;13.712;2022-12-18T15:13:09;11.05;;;8.55;;
6452;SDS011;3259;51.080;13.712;2022-12-18T15:16:04;12.73;;;9.05;;
6452;SDS011;3259;51.080;13.712;2022-12-18T15:19:00;12.23;;;9.77;;
6452;SDS011;3259;51.080;13.712;2022-12-18T15:21:49;10.13;;;7.93;;
6452;SDS011;3259;51.080;13.712;2022-12-18T15:24:37;12.35;;;8.68;;
6452;SDS011;3259;51.080;13.712;2022-12-18T15:27:27;10.27;;;8.18;;
6452;SDS011;3259;51.080;13.712;2022-12-18T15:30:20;11.30;;;8.57;;
6452;SDS011;3259;51.080;13.712;2022-12-18T15:33:17;9.13;;;8.05;;
6452;SDS011;3259;51.080;13.712;2022-12-18T15:36:13;18.00;;;8.13;;
6452;SDS011;3259;51.080;13.712;2022-12-18T15:39:11;11.20;;;7.53;;
6452;SDS011;3259;51.080;13.712;2022-12-18T15:42:01;8.73;;;7.38;;
6452;SDS011;3259;51.080;13.712;2022-12-18T15:45:10;16.02;;;7.18;;
6452;SDS011;3259;51.080;13.712;2022-12-18T15:48:01;9.00;;;7.65;;
6452;SDS011;3259;51.080;13.712;2022-12-18T15:50:49;9.45;;;7.35;;
6452;SDS011;3259;51.080;13.712;2022-12-18T15:53:38;11.63;;;7.07;;
6452;SDS011;3259;51.080;13.712;2022-12-18T15:56:28;9.55;;;6.85;;
6452;SDS011;3259;51.080;13.712;2022-12-18T15:59:35;9.85;;;6.57;;
6452;SDS011;3259;51.080;13.712;2022-12-18T16:02:24;8.27;;;6.03;;
6452;SDS011;3259;51.080;13.712;2022-12-18T16:05:16;11.80;;;7.45;;
6452;SDS011;3259;51.080;13.712;2022-12-18T16:08:06;9.32;;;6.90;;
6452;SDS011;3259;51.080;13.712;2022-12-18T16:10:55;8.88;;;6.22;;
6452;SDS011;3259;51.080;13.712;2022-12-18T16:13:44;9.57;;;6.30;;
6452;SDS011;3259;51.080;13.712;2022-12-18T16:16:32;7.72;;;5.88;;
6452;SDS011;3259;51.080;13.712;2022-12-18T16:19:21;8.13;;;6.65;;
6452;SDS011;3259;51.080;13.712;2022-12-18T16:22:17;9.75;;;5.72;;
6452;SDS011;3259;51.080;13.712;2022-12-18T16:25:09;15.30;;;8.95;;
6452;SDS011;3259;51.080;13.712;2022-12-18T16:28:12;18.00;;;10.13;;
6452;SDS011;3259;51.080;13.712;2022-12-18T16:31:01;10.48;;;8.35;;
6452;SDS011;3259;51.080;13.712;2022-12-18T16:33:49;12.48;;;7.97;;
6452;SDS011;3259;51.080;13.712;2022-12-18T16:36:38;12.68;;;7.93;;
6452;SDS011;3259;51.080;13.712;2022-12-18T16:39:28;10.93;;;7.75;;
6452;SDS011;3259;51.080;13.712;2022-12-18T16:42:18;22.23;;;8.02;;
6452;SDS011;3259;51.080;13.712;2022-12-18T16:45:08;10.20;;;7.07;;
6452;SDS011;3259;51.080;13.712;2022-12-18T16:47:58;12.18;;;6.75;;
6452;SDS011;3259;51.080;13.712;2022-12-18T16:50:46;12.55;;;6.60;;
6452;SDS011;3259;51.080;13.712;2022-12-18T16:53:35;9.80;;;6.75;;
6452;SDS011;3259;51.080;13.712;2022-12-18T16:56:26;12.38;;;6.28;;
6452;SDS011;3259;51.080;13.712;2022-12-18T16:59:14;9.68;;;7.40;;
6452;SDS011;3259;51.080;13.712;2022-12-18T17:02:03;14.13;;;7.63;;
6452;SDS011;3259;51.080;13.712;2022-12-18T17:04:52;10.27;;;7.15;;
6452;SDS011;3259;51.080;13.712;2022-12-18T17:07:41;11.68;;;6.57;;
6452;SDS011;3259;51.080;13.712;2022-12-18T17:10:30;8.32;;;6.57;;
6452;SDS011;3259;51.080;13.712;2022-12-18T17:13:21;11.27;;;6.55;;
6452;SDS011;3259;51.080;13.712;2022-12-18T17:16:11;8.25;;;5.65;;
6452;SDS011;3259;51.080;13.712;2022-12-18T17:19:00;10.90;;;6.18;;
6452;SDS011;3259;51.080;13.712;2022-12-18T17:21:49;11.63;;;6.38;;
6452;SDS011;3259;51.080;13.712;2022-12-18T17:24:38;10.23;;;5.97;;
6452;SDS011;3259;51.080;13.712;2022-12-18T17:27:26;10.13;;;5.57;;
6452;SDS011;3259;51.080;13.712;2022-12-18T17:30:17;8.63;;;6.30;;
6452;SDS011;3259;51.080;13.712;2022-12-18T17:33:05;8.40;;;6.13;;